Time;durP1;ratioP1;P1;durP2;ratioP2;P2;SDS_P1;SDS_P2;PMS_P1;PMS_P2;Temp;Humidity;BMP_temperature;BMP_pressure;BME280_temperature;BME280_humidity;BME280_pressure;Samples;Min_cycle;Max_cycle;Signal;HPM_P1;HPM_P2
2021/10/30 00:01:57;;;;;;;4.00;1.65;;;21.00;62.00;;;;;;4948928;28;87980;-62
2021/10/30 00:04:23;;;;;;;3.13;1.40;;;21.00;62.00;;;;;;4949112;28;89054;-63
2021/10/30 00:06:49;;;;;;;2.28;1.52;;;21.00;62.00;;;;;;4947450;28;89034;-63
2021/10/30 00:09:14;;;;;;;2.10;1.13;;;21.00;62.00;;;;;;4947541;28;88200;-63
2021/10/30 00:11:40;;;;;;;4.28;1.65;;;21.00;62.00;;;;;;4949006;28;88195;-62
2021/10/30 00:14:06;;;;;;;3.00;1.38;;;21.00;62.00;;;;;;4949389;28;88163;-59
2021/10/30 00:16:32;;;;;;;6.05;1.45;;;21.00;62.10;;;;;;4949485;28;87610;-63
2021/10/30 00:18:57;;;;;;;3.63;1.25;;;20.90;62.00;;;;;;4947603;28;91720;-62
2021/10/30 00:21:23;;;;;;;2.85;1.30;;;21.00;62.10;;;;;;4949337;28;88816;-60
2021/10/30 00:23:48;;;;;;;6.43;1.38;;;21.00;62.20;;;;;;4949771;28;87416;-62
2021/10/30 00:26:14;;;;;;;3.63;1.30;;;21.00;62.20;;;;;;4949073;28;87297;-61
2021/10/30 00:28:40;;;;;;;2.80;1.33;;;21.00;62.20;;;;;;4946268;28;89461;-61
2021/10/30 00:31:06;;;;;;;4.00;1.35;;;21.00;62.20;;;;;;4948112;28;88620;-61
2021/10/30 00:33:32;;;;;;;4.70;1.50;;;20.90;62.20;;;;;;4949915;28;87596;-63
2021/10/30 00:35:57;;;;;;;3.80;1.40;;;20.90;62.20;;;;;;4952286;28;87730;-62
2021/10/30 00:38:23;;;;;;;6.03;1.70;;;20.90;62.30;;;;;;4950397;28;91468;-61
2021/10/30 00:40:49;;;;;;;4.05;1.13;;;21.00;62.30;;;;;;4951823;28;87399;-62
2021/10/30 00:43:15;;;;;;;4.25;1.67;;;20.90;62.30;;;;;;4951574;28;87907;-59
2021/10/30 00:45:45;;;;;;;3.70;1.33;;;21.00;62.40;;;;;;4951584;28;87436;-63
2021/10/30 00:48:11;;;;;;;3.15;1.42;;;20.90;62.40;;;;;;4951905;28;87599;-63
2021/10/30 00:50:36;;;;;;;2.58;1.33;;;20.90;62.50;;;;;;4951239;28;87956;-63
2021/10/30 00:53:03;;;;;;;5.03;1.50;;;20.90;62.50;;;;;;4951797;28;89302;-62
2021/10/30 00:55:30;;;;;;;2.78;1.40;;;20.90;62.50;;;;;;4951383;28;88389;-62
2021/10/30 00:58:00;;;;;;;2.80;1.33;;;20.90;62.50;;;;;;4951585;28;87968;-63
2021/10/30 01:00:26;;;;;;;2.92;1.10;;;20.90;62.50;;;;;;4952008;28;87699;-60
2021/10/30 01:02:52;;;;;;;2.35;1.13;;;20.90;62.50;;;;;;4952081;28;87360;-61
2021/10/30 01:05:18;;;;;;;4.22;1.65;;;20.90;62.50;;;;;;4951287;28;87399;-61
2021/10/30 01:07:44;;;;;;;4.07;1.27;;;20.90;62.60;;;;;;4950956;28;88077;-59
2021/10/30 01:10:10;;;;;;;3.80;1.17;;;21.00;62.70;;;;;;4932964;28;89598;-59
2021/10/30 01:12:35;;;;;;;4.53;1.17;;;20.90;62.60;;;;;;4952035;28;86734;-59
2021/10/30 01:15:05;;;;;;;4.07;1.38;;;20.90;62.70;;;;;;4951944;28;88226;-62
2021/10/30 01:17:31;;;;;;;2.53;1.10;;;20.90;62.80;;;;;;4951887;28;88233;-60
2021/10/30 01:19:57;;;;;;;4.93;1.55;;;20.90;62.70;;;;;;4950808;28;88490;-63
2021/10/30 01:22:24;;;;;;;2.53;1.60;;;20.90;62.70;;;;;;4952054;28;87910;-60
2021/10/30 01:24:51;;;;;;;2.10;1.08;;;20.90;62.80;;;;;;4952170;28;88019;-61
2021/10/30 01:27:19;;;;;;;1.98;1.23;;;20.90;62.80;;;;;;4951023;28;88564;-62
2021/10/30 01:29:48;;;;;;;3.15;1.60;;;20.90;62.80;;;;;;4952952;28;87924;-61
2021/10/30 01:32:19;;;;;;;2.67;1.23;;;20.90;62.70;;;;;;4932100;28;87718;-62
2021/10/30 01:34:45;;;;;;;4.20;1.15;;;20.90;62.70;;;;;;4948510;28;87586;-62
2021/10/30 01:37:12;;;;;;;1.83;1.27;;;20.90;62.70;;;;;;4948901;28;86987;-60
2021/10/30 01:39:38;;;;;;;2.38;1.55;;;20.90;62.70;;;;;;4930279;28;89986;-62
2021/10/30 01:42:04;;;;;;;2.28;1.25;;;20.90;62.60;;;;;;4947763;28;87825;-64
2021/10/30 01:44:30;;;;;;;5.80;1.63;;;20.90;62.60;;;;;;4946545;28;88457;-62
2021/10/30 01:47:01;;;;;;;1.95;1.15;;;20.90;62.60;;;;;;4949062;28;88083;-64
2021/10/30 01:49:27;;;;;;;4.20;1.50;;;20.80;62.50;;;;;;4948606;28;88766;-60
2021/10/30 01:51:53;;;;;;;2.22;1.38;;;20.90;62.60;;;;;;4947370;28;88058;-60
2021/10/30 01:54:19;;;;;;;2.05;1.38;;;20.80;62.50;;;;;;4949231;28;87813;-61
2021/10/30 01:56:44;;;;;;;2.92;1.25;;;20.90;62.50;;;;;;4948418;28;88632;-60
2021/10/30 01:59:10;;;;;;;3.60;1.20;;;20.80;62.50;;;;;;4948133;28;87935;-63
2021/10/30 02:01:35;;;;;;;3.05;1.40;;;20.80;62.40;;;;;;4949532;28;86612;-62
2021/10/30 02:04:02;;;;;;;2.13;1.02;;;20.80;62.40;;;;;;4948491;28;87846;-61
2021/10/30 02:06:28;;;;;;;1.88;1.10;;;20.90;62.40;;;;;;4947977;28;87994;-59
2021/10/30 02:08:54;;;;;;;2.80;1.30;;;20.90;62.40;;;;;;4948222;28;89436;-61
2021/10/30 02:11:20;;;;;;;5.70;1.90;;;20.90;62.40;;;;;;4948590;28;87327;-62
2021/10/30 02:13:46;;;;;;;3.13;1.60;;;20.80;62.40;;;;;;4947101;28;87756;-62
2021/10/30 02:16:13;;;;;;;3.67;1.30;;;20.80;62.30;;;;;;4947906;28;87542;-63
2021/10/30 02:18:40;;;;;;;3.88;1.20;;;20.80;62.30;;;;;;4948722;28;87982;-62
2021/10/30 02:21:05;;;;;;;2.65;1.20;;;20.80;62.30;;;;;;4948430;28;88269;-59
2021/10/30 02:23:31;;;;;;;3.10;1.20;;;20.80;62.30;;;;;;4947534;28;87902;-60
2021/10/30 02:25:57;;;;;;;1.52;1.00;;;20.80;62.30;;;;;;4930486;28;89133;-61
2021/10/30 02:28:22;;;;;;;1.95;1.13;;;20.80;62.20;;;;;;4948205;28;89044;-63
2021/10/30 02:30:48;;;;;;;3.03;1.00;;;20.80;62.20;;;;;;4930254;28;87805;-61
2021/10/30 02:33:14;;;;;;;2.47;1.25;;;20.80;62.20;;;;;;4945700;28;88616;-62
2021/10/30 02:35:40;;;;;;;3.70;1.38;;;20.80;62.20;;;;;;4947597;28;88203;-60
2021/10/30 02:38:06;;;;;;;2.80;1.33;;;20.80;62.20;;;;;;4948574;28;88369;-60
2021/10/30 02:40:32;;;;;;;1.65;1.20;;;20.80;62.20;;;;;;4947285;28;87409;-63
2021/10/30 02:42:57;;;;;;;1.65;1.20;;;20.80;62.20;;;;;;4948052;28;87941;-61
2021/10/30 02:45:23;;;;;;;3.42;1.63;;;20.80;62.20;;;;;;4947421;28;88339;-62
2021/10/30 02:47:49;;;;;;;2.22;1.30;;;20.80;62.20;;;;;;4948245;28;88127;-61
2021/10/30 02:50:15;;;;;;;2.55;1.10;;;20.80;62.20;;;;;;4947029;28;87188;-59
2021/10/30 02:52:41;;;;;;;1.65;1.10;;;20.80;62.10;;;;;;4948456;28;87679;-63
2021/10/30 02:55:09;;;;;;;2.03;1.10;;;20.80;62.10;;;;;;4948113;28;88324;-64
2021/10/30 02:57:35;;;;;;;1.42;1.15;;;20.80;62.20;;;;;;4945835;28;88058;-59
2021/10/30 03:00:00;;;;;;;3.72;1.75;;;20.80;62.20;;;;;;4948309;28;88228;-63
2021/10/30 03:02:26;;;;;;;2.33;1.10;;;20.70;62.10;;;;;;4947701;28;87544;-63
2021/10/30 03:04:53;;;;;;;5.75;1.33;;;20.80;62.10;;;;;;4948096;28;88193;-61
2021/10/30 03:07:19;;;;;;;2.85;1.38;;;20.80;62.10;;;;;;4947354;28;87828;-60
2021/10/30 03:09:49;;;;;;;4.53;1.40;;;20.80;62.10;;;;;;4948113;28;87944;-63
2021/10/30 03:12:16;;;;;;;2.00;1.27;;;20.80;62.10;;;;;;4946977;28;88359;-59
2021/10/30 03:14:41;;;;;;;1.70;1.35;;;20.80;62.10;;;;;;4929084;28;89614;-63
2021/10/30 03:17:07;;;;;;;2.70;1.20;;;20.80;62.10;;;;;;4947091;28;88522;-63
2021/10/30 03:19:33;;;;;;;2.67;0.98;;;20.70;62.00;;;;;;4947841;28;87157;-63
2021/10/30 03:21:58;;;;;;;3.60;1.67;;;20.70;62.10;;;;;;4946613;28;88806;-64
2021/10/30 03:24:24;;;;;;;2.13;1.02;;;20.70;62.10;;;;;;4947699;28;87914;-59
2021/10/30 03:26:50;;;;;;;3.67;1.52;;;20.80;62.10;;;;;;4945884;28;90748;-62
2021/10/30 03:29:15;;;;;;;1.92;1.30;;;20.80;62.20;;;;;;4930020;28;87854;-63
2021/10/30 03:31:41;;;;;;;2.95;1.02;;;20.80;62.20;;;;;;4948038;28;87653;-63
2021/10/30 03:34:07;;;;;;;6.10;1.65;;;20.70;62.10;;;;;;4946856;28;88340;-61
2021/10/30 03:36:32;;;;;;;2.42;1.30;;;20.70;62.10;;;;;;4947854;28;87924;-59
2021/10/30 03:38:58;;;;;;;2.63;1.08;;;20.70;62.10;;;;;;4947193;28;87400;-63
2021/10/30 03:41:24;;;;;;;3.00;1.08;;;20.70;62.10;;;;;;4949308;28;87737;-61
2021/10/30 03:43:53;;;;;;;1.33;0.95;;;20.70;62.20;;;;;;4949098;28;88041;-60
2021/10/30 03:46:18;;;;;;;2.50;1.50;;;20.70;62.30;;;;;;4949206;28;88464;-63
2021/10/30 03:48:44;;;;;;;2.33;0.88;;;20.70;62.30;;;;;;4948960;28;87080;-62
2021/10/30 03:51:09;;;;;;;2.72;1.35;;;20.70;62.40;;;;;;4949753;28;88105;-61
2021/10/30 03:53:35;;;;;;;2.17;1.20;;;20.70;62.50;;;;;;4949328;28;88347;-62
2021/10/30 03:56:01;;;;;;;2.40;1.10;;;20.70;62.60;;;;;;4949770;28;87517;-63
2021/10/30 03:58:29;;;;;;;1.70;1.20;;;20.70;62.60;;;;;;4949142;28;87873;-63
2021/10/30 04:00:54;;;;;;;1.70;1.10;;;20.70;62.60;;;;;;4949063;28;88251;-63
2021/10/30 04:03:20;;;;;;;2.58;1.10;;;20.70;62.60;;;;;;4949624;28;87412;-62
2021/10/30 04:05:46;;;;;;;1.63;0.85;;;20.70;62.70;;;;;;4949103;28;87695;-61
2021/10/30 04:08:17;;;;;;;3.47;1.35;;;20.70;62.70;;;;;;4949248;28;87245;-63
2021/10/30 04:10:43;;;;;;;2.20;1.05;;;20.70;62.80;;;;;;4950526;28;88781;-62
2021/10/30 04:13:08;;;;;;;4.40;1.00;;;20.70;62.90;;;;;;4951220;28;91063;-61
2021/10/30 04:15:34;;;;;;;2.08;1.20;;;20.70;62.90;;;;;;4952329;28;88403;-59
2021/10/30 04:18:00;;;;;;;3.65;1.27;;;20.70;63.00;;;;;;4952879;28;88433;-62
2021/10/30 04:20:25;;;;;;;1.77;0.90;;;20.70;63.10;;;;;;4951432;28;89439;-63
2021/10/30 04:22:51;;;;;;;2.58;1.20;;;20.70;63.10;;;;;;4952300;28;88250;-63
2021/10/30 04:25:17;;;;;;;2.00;1.15;;;20.70;63.10;;;;;;4953133;28;87934;-59
2021/10/30 04:27:42;;;;;;;4.03;1.00;;;20.70;63.10;;;;;;4953049;28;87351;-59
2021/10/30 04:30:08;;;;;;;7.63;1.50;;;20.70;63.20;;;;;;4951209;28;88541;-62
2021/10/30 04:32:34;;;;;;;2.17;1.30;;;20.70;63.30;;;;;;4952136;28;87803;-61
2021/10/30 04:35:06;;;;;;;2.47;1.10;;;20.70;63.30;;;;;;4951179;28;89574;-63
2021/10/30 04:37:31;;;;;;;3.97;1.40;;;20.70;63.30;;;;;;4951957;28;87644;-60
2021/10/30 04:39:57;;;;;;;2.95;0.98;;;20.70;63.90;;;;;;4952048;28;87570;-62
2021/10/30 04:42:23;;;;;;;1.50;0.90;;;20.70;63.30;;;;;;4950461;28;91089;-62
2021/10/30 04:44:49;;;;;;;2.65;0.95;;;20.70;63.40;;;;;;4951283;28;88292;-60
2021/10/30 04:47:16;;;;;;;1.83;0.93;;;20.70;63.40;;;;;;4952248;28;87164;-63
2021/10/30 04:49:44;;;;;;;2.25;1.10;;;20.60;63.30;;;;;;4952286;28;87029;-62
2021/10/30 04:52:10;;;;;;;2.72;1.02;;;20.60;63.30;;;;;;4952008;28;87453;-60
2021/10/30 04:54:35;;;;;;;1.67;1.02;;;20.70;63.40;;;;;;4951272;28;87634;-62
2021/10/30 04:57:01;;;;;;;2.33;1.50;;;20.70;63.40;;;;;;4951198;28;87609;-63
2021/10/30 04:59:27;;;;;;;1.30;1.17;;;20.70;63.40;;;;;;4950830;28;88588;-59
2021/10/30 05:01:52;;;;;;;1.55;1.05;;;20.70;63.40;;;;;;4933634;28;90960;-63
2021/10/30 05:04:18;;;;;;;2.05;0.85;;;20.70;63.50;;;;;;4951208;28;87342;-61
2021/10/30 05:06:44;;;;;;;1.70;1.10;;;20.70;63.50;;;;;;4952205;28;87999;-63
2021/10/30 05:09:09;;;;;;;2.38;1.33;;;20.70;63.50;;;;;;4951680;28;88145;-63
2021/10/30 05:11:35;;;;;;;1.48;0.98;;;20.70;63.50;;;;;;4950990;28;87815;-61
2021/10/30 05:14:01;;;;;;;6.60;1.00;;;20.70;63.50;;;;;;4949152;28;91506;-62
2021/10/30 05:16:27;;;;;;;1.50;1.10;;;20.70;63.50;;;;;;4952013;28;86641;-61
2021/10/30 05:18:52;;;;;;;1.63;1.00;;;20.70;63.50;;;;;;4951756;28;87964;-63
2021/10/30 05:21:18;;;;;;;2.90;1.00;;;20.60;63.50;;;;;;4950729;28;88159;-62
2021/10/30 05:23:44;;;;;;;4.72;1.30;;;20.60;63.50;;;;;;4949512;28;88057;-62
2021/10/30 05:26:11;;;;;;;4.68;1.10;;;20.60;63.50;;;;;;4950260;28;87808;-62
2021/10/30 05:28:36;;;;;;;2.72;1.10;;;20.60;63.50;;;;;;4951511;28;87733;-59
2021/10/30 05:31:03;;;;;;;4.50;1.20;;;20.60;63.60;;;;;;4950240;28;89517;-62
2021/10/30 05:33:28;;;;;;;2.58;1.20;;;20.60;63.60;;;;;;4950160;28;88632;-59
2021/10/30 05:35:54;;;;;;;3.22;1.33;;;20.60;63.60;;;;;;4951444;28;88113;-63
2021/10/30 05:38:20;;;;;;;3.92;1.20;;;20.60;63.70;;;;;;4933388;28;88077;-62
2021/10/30 05:40:46;;;;;;;3.72;1.20;;;20.60;63.70;;;;;;4951635;28;87011;-59
2021/10/30 05:43:13;;;;;;;3.40;1.30;;;20.60;63.70;;;;;;4951407;28;87604;-60
2021/10/30 05:45:41;;;;;;;1.75;1.10;;;20.60;63.70;;;;;;4951093;28;88251;-61
2021/10/30 05:48:08;;;;;;;1.70;0.98;;;20.60;63.70;;;;;;4951010;28;89296;-64
2021/10/30 05:50:35;;;;;;;3.55;1.40;;;20.60;63.70;;;;;;4951978;28;88256;-59
2021/10/30 05:53:01;;;;;;;1.90;1.10;;;20.60;63.80;;;;;;4950578;28;88194;-62
2021/10/30 05:55:27;;;;;;;1.33;1.13;;;20.60;63.70;;;;;;4950248;28;88227;-60
2021/10/30 05:57:53;;;;;;;1.25;1.05;;;20.60;63.80;;;;;;4950781;28;88120;-62
2021/10/30 06:00:19;;;;;;;2.80;1.23;;;20.60;63.80;;;;;;4951048;28;88339;-63
2021/10/30 06:02:45;;;;;;;1.98;0.90;;;20.60;63.80;;;;;;4949492;28;91047;-62
2021/10/30 06:05:10;;;;;;;2.15;1.02;;;20.60;63.80;;;;;;4950870;28;87495;-63
2021/10/30 06:07:37;;;;;;;1.50;1.17;;;20.60;63.80;;;;;;4950918;28;87740;-60
2021/10/30 06:10:03;;;;;;;2.55;1.42;;;20.60;63.80;;;;;;4948010;28;89378;-61
2021/10/30 06:12:29;;;;;;;2.33;1.30;;;20.60;63.80;;;;;;4949375;28;89226;-62
2021/10/30 06:14:54;;;;;;;2.63;1.02;;;20.60;63.80;;;;;;4950918;28;87894;-63
2021/10/30 06:17:20;;;;;;;1.70;0.90;;;20.60;63.80;;;;;;4951106;28;87673;-62
2021/10/30 06:19:47;;;;;;;2.17;1.10;;;20.60;63.90;;;;;;4950047;28;88390;-61
2021/10/30 06:22:13;;;;;;;1.33;1.08;;;20.60;63.90;;;;;;4949948;28;88064;-63
2021/10/30 06:24:38;;;;;;;1.33;1.10;;;20.60;63.90;;;;;;4950472;28;87287;-65
2021/10/30 06:27:05;;;;;;;1.73;1.05;;;20.60;63.90;;;;;;4951012;28;88127;-63
2021/10/30 06:29:30;;;;;;;1.45;1.00;;;20.60;63.90;;;;;;4950345;28;89309;-61
2021/10/30 06:31:56;;;;;;;1.90;1.15;;;20.60;64.00;;;;;;4950341;28;88147;-62
2021/10/30 06:34:22;;;;;;;1.23;1.00;;;20.60;64.00;;;;;;4950922;28;87910;-64
2021/10/30 06:36:48;;;;;;;2.67;1.08;;;20.60;64.00;;;;;;4950171;28;88651;-63
2021/10/30 06:39:14;;;;;;;5.20;1.05;;;20.60;64.30;;;;;;4949804;28;88027;-64
2021/10/30 06:41:40;;;;;;;4.10;1.10;;;20.60;64.30;;;;;;4949442;28;88089;-61
2021/10/30 06:44:08;;;;;;;3.83;1.20;;;20.50;64.30;;;;;;4949142;28;87883;-64
2021/10/30 06:46:34;;;;;;;5.75;1.10;;;20.60;64.30;;;;;;4949229;28;88232;-60
2021/10/30 06:49:00;;;;;;;3.10;1.08;;;20.50;64.40;;;;;;4950730;28;87719;-63
2021/10/30 06:51:25;;;;;;;3.60;1.25;;;20.60;64.40;;;;;;4950468;28;88274;-60
2021/10/30 06:53:51;;;;;;;5.07;1.48;;;20.50;64.40;;;;;;4950266;28;86336;-61
2021/10/30 06:56:18;;;;;;;2.33;1.27;;;20.50;64.40;;;;;;4949911;28;88020;-63
2021/10/30 06:58:44;;;;;;;2.83;1.20;;;20.50;64.40;;;;;;4948981;28;88628;-63
2021/10/30 07:01:13;;;;;;;3.90;1.00;;;20.50;64.50;;;;;;4947438;28;90937;-64
2021/10/30 07:03:42;;;;;;;1.77;1.10;;;20.50;64.50;;;;;;4948732;28;87567;-62
2021/10/30 07:06:09;;;;;;;4.10;1.30;;;20.50;64.50;;;;;;4949953;28;87496;-64
2021/10/30 07:08:35;;;;;;;6.25;1.10;;;20.50;64.50;;;;;;4950449;28;88711;-64
2021/10/30 07:11:00;;;;;;;4.75;1.05;;;20.50;64.60;;;;;;4949682;28;88176;-62
2021/10/30 07:13:26;;;;;;;2.78;1.00;;;20.50;64.70;;;;;;4924583;28;87446;-61
2021/10/30 07:15:52;;;;;;;3.83;1.98;;;20.50;64.80;;;;;;4949933;28;87981;-60
2021/10/30 07:18:18;;;;;;;2.95;1.33;;;20.50;64.90;;;;;;4950500;28;87597;-62
2021/10/30 07:20:43;;;;;;;3.40;0.95;;;20.50;65.20;;;;;;4949946;28;87241;-63
2021/10/30 07:23:09;;;;;;;3.65;1.20;;;20.50;65.30;;;;;;4949952;28;88063;-62
2021/10/30 07:25:34;;;;;;;3.88;1.33;;;20.50;65.20;;;;;;4949296;28;88627;-64
2021/10/30 07:28:00;;;;;;;4.53;1.20;;;20.50;65.00;;;;;;4931910;28;90088;-60
2021/10/30 07:30:26;;;;;;;6.60;2.72;;;20.50;64.70;;;;;;4933509;28;91175;-64
2021/10/30 07:32:52;;;;;;;14.95;3.40;;;20.60;64.80;;;;;;4932000;28;88030;-64
2021/10/30 07:35:20;;;;;;;8.57;2.53;;;20.50;64.70;;;;;;4948860;28;87091;-63
2021/10/30 07:37:46;;;;;;;8.60;2.22;;;20.50;64.40;;;;;;4949117;28;87580;-63
2021/10/30 07:40:12;;;;;;;8.38;2.78;;;20.50;64.20;;;;;;4931802;28;89875;-63
2021/10/30 07:42:37;;;;;;;6.90;2.45;;;20.50;64.00;;;;;;4931858;28;87268;-61
2021/10/30 07:45:04;;;;;;;7.18;2.45;;;20.50;63.80;;;;;;4948998;28;87042;-60
2021/10/30 07:47:30;;;;;;;7.72;2.50;;;20.50;63.60;;;;;;4925866;28;89163;-62
2021/10/30 07:49:57;;;;;;;5.90;1.90;;;20.50;63.60;;;;;;4949159;28;89207;-63
2021/10/30 07:52:22;;;;;;;4.50;2.00;;;20.50;63.40;;;;;;4924098;28;87660;-60
2021/10/30 07:54:49;;;;;;;9.45;2.05;;;20.50;63.30;;;;;;4949054;28;87738;-62
2021/10/30 07:57:15;;;;;;;26.52;4.80;;;20.50;63.50;;;;;;4948435;28;88206;-63
2021/10/30 07:59:40;;;;;;;23.52;5.75;;;20.50;63.40;;;;;;4948290;28;87879;-59
2021/10/30 08:02:07;;;;;;;23.75;5.50;;;20.50;63.50;;;;;;4949187;28;87037;-65
2021/10/30 08:04:34;;;;;;;24.98;5.55;;;20.50;63.50;;;;;;4931997;28;88243;-62
2021/10/30 08:06:59;;;;;;;39.60;7.78;;;20.50;63.40;;;;;;4932494;28;90607;-60
2021/10/30 08:09:26;;;;;;;39.22;7.25;;;20.50;63.60;;;;;;4948963;28;88031;-63
2021/10/30 08:11:52;;;;;;;33.05;7.47;;;20.50;63.50;;;;;;4949593;28;87192;-63
2021/10/30 08:14:18;;;;;;;30.65;7.07;;;20.50;63.40;;;;;;4948612;28;88926;-62
2021/10/30 08:16:43;;;;;;;26.20;6.53;;;20.40;63.30;;;;;;4948636;28;88377;-61
2021/10/30 08:19:09;;;;;;;41.90;7.50;;;20.40;63.30;;;;;;4949234;28;88185;-63
2021/10/30 08:21:35;;;;;;;31.73;6.10;;;20.40;63.20;;;;;;4948956;28;87999;-62
2021/10/30 08:24:03;;;;;;;37.60;8.50;;;20.40;63.20;;;;;;4946180;28;89690;-64
2021/10/30 08:26:29;;;;;;;25.27;7.03;;;20.40;63.10;;;;;;4948864;28;88214;-68
2021/10/30 08:28:55;;;;;;;28.73;7.03;;;20.40;63.10;;;;;;4947447;28;88444;-59
2021/10/30 08:31:22;;;;;;;26.10;7.80;;;20.50;63.10;;;;;;4948089;28;86429;-61
2021/10/30 08:33:52;;;;;;;24.08;6.13;;;20.40;63.00;;;;;;4947830;28;87275;-66
2021/10/30 08:36:18;;;;;;;23.80;6.60;;;20.40;63.00;;;;;;4938834;28;89407;-64
2021/10/30 08:38:44;;;;;;;23.00;5.70;;;20.40;63.00;;;;;;4945453;28;88549;-64
2021/10/30 08:41:11;;;;;;;26.42;5.50;;;20.40;63.00;;;;;;4947405;28;87948;-64
2021/10/30 08:43:37;;;;;;;29.55;6.20;;;20.40;62.90;;;;;;4946783;28;88557;-67
2021/10/30 08:46:04;;;;;;;20.77;6.22;;;20.40;62.80;;;;;;4946996;28;88467;-66
2021/10/30 08:48:31;;;;;;;20.75;5.10;;;20.40;62.70;;;;;;4882847;28;90055;-66
2021/10/30 08:51:02;;;;;;;17.42;5.47;;;20.40;62.70;;;;;;4929770;28;87512;-64
2021/10/30 08:53:28;;;;;;;18.35;5.47;;;20.40;62.60;;;;;;4945346;28;88732;-66
2021/10/30 08:55:54;;;;;;;23.92;5.68;;;20.40;62.50;;;;;;4950345;28;87025;-65
2021/10/30 08:58:20;;;;;;;14.32;4.78;;;20.40;62.60;;;;;;4950124;28;88213;-65
2021/10/30 09:00:50;;;;;;;27.65;4.95;;;20.40;62.50;;;;;;4951647;28;87043;-65
2021/10/30 09:03:19;;;;;;;19.27;5.10;;;20.40;62.50;;;;;;4950477;28;88902;-66
2021/10/30 09:05:48;;;;;;;16.50;4.47;;;20.40;62.50;;;;;;4933104;28;88810;-66
2021/10/30 09:08:14;;;;;;;14.05;4.38;;;20.40;62.50;;;;;;4950262;28;87567;-66
2021/10/30 09:10:44;;;;;;;17.80;4.68;;;20.40;62.50;;;;;;4950365;28;88106;-66
2021/10/30 09:13:11;;;;;;;16.63;4.80;;;20.40;62.50;;;;;;4950529;28;87879;-65
2021/10/30 09:15:51;;;;;;;15.13;3.88;;;20.40;62.50;;;;;;4950426;28;88140;-65
2021/10/30 09:18:29;;;;;;;12.23;3.97;;;20.40;62.40;;;;;;4933257;28;91552;-66
2021/10/30 09:21:05;;;;;;;15.25;4.88;;;20.30;62.40;;;;;;4950529;28;87631;-65
2021/10/30 09:23:39;;;;;;;14.35;4.15;;;20.30;62.30;;;;;;4949329;28;88702;-66
2021/10/30 09:26:06;;;;;;;12.13;3.42;;;20.40;62.30;;;;;;4950215;28;87546;-66
2021/10/30 09:28:36;;;;;;;8.63;3.53;;;20.30;62.20;;;;;;4950680;28;88654;-66
2021/10/30 09:31:05;;;;;;;9.32;3.70;;;20.30;62.20;;;;;;4951772;28;87502;-65
2021/10/30 09:33:33;;;;;;;10.50;3.60;;;20.30;62.10;;;;;;4950503;28;87732;-66
2021/10/30 09:36:09;;;;;;;10.82;3.15;;;20.30;62.10;;;;;;4951255;28;87694;-65
2021/10/30 09:38:37;;;;;;;9.35;3.10;;;20.30;62.10;;;;;;4950569;28;88703;-65
2021/10/30 09:41:22;;;;;;;7.00;2.97;;;20.30;62.10;;;;;;4949336;28;87863;-67
2021/10/30 09:43:58;;;;;;;9.38;3.40;;;20.30;62.10;;;;;;4950938;28;87995;-66
2021/10/30 09:46:26;;;;;;;11.48;3.60;;;20.30;62.10;;;;;;4951898;28;87584;-67
2021/10/30 09:48:54;;;;;;;8.10;2.85;;;20.30;62.10;;;;;;4950629;28;87507;-65
2021/10/30 09:51:33;;;;;;;9.48;3.13;;;20.30;62.10;;;;;;4951147;28;87811;-67
2021/10/30 09:53:59;;;;;;;7.32;2.50;;;20.30;62.20;;;;;;4948875;28;89433;-68
2021/10/30 09:56:49;;;;;;;8.98;2.65;;;20.30;62.30;;;;;;4931177;28;89397;-67
2021/10/30 09:59:19;;;;;;;6.07;2.20;;;20.30;62.40;;;;;;4948644;28;87949;-65
2021/10/30 10:01:49;;;;;;;6.18;2.47;;;20.30;62.40;;;;;;4950107;28;88069;-61
2021/10/30 10:04:17;;;;;;;5.07;2.33;;;20.30;62.50;;;;;;4932165;28;91168;-68
2021/10/30 10:06:45;;;;;;;9.60;2.63;;;20.30;62.70;;;;;;4949132;28;87760;-63
2021/10/30 10:09:12;;;;;;;8.68;2.97;;;20.30;62.80;;;;;;4949463;28;87918;-68
2021/10/30 10:11:41;;;;;;;6.90;2.53;;;20.30;62.90;;;;;;4951029;28;86480;-63
2021/10/30 10:14:07;;;;;;;5.53;2.58;;;20.30;63.00;;;;;;4949957;28;88146;-67
2021/10/30 10:16:34;;;;;;;4.43;1.92;;;20.30;63.00;;;;;;4950937;28;88328;-67
2021/10/30 10:18:59;;;;;;;7.70;2.47;;;20.30;63.10;;;;;;4922731;28;91038;-67
2021/10/30 10:21:32;;;;;;;6.28;2.15;;;20.30;63.10;;;;;;4950317;28;87669;-68
2021/10/30 10:24:26;;;;;;;5.28;2.20;;;20.30;63.20;;;;;;4947767;28;89488;-67
2021/10/30 10:26:53;;;;;;;5.78;1.98;;;20.30;63.30;;;;;;4948420;28;87873;-65
2021/10/30 10:29:34;;;;;;;4.97;2.38;;;20.30;63.30;;;;;;4923432;28;90425;-67
2021/10/30 10:32:16;;;;;;;5.65;1.70;;;20.30;63.40;;;;;;4932034;28;87369;-68
2021/10/30 10:34:42;;;;;;;8.70;2.58;;;20.30;63.40;;;;;;4950578;28;87770;-62
2021/10/30 10:37:10;;;;;;;3.65;1.77;;;20.30;63.40;;;;;;4950664;28;87435;-69
2021/10/30 10:39:37;;;;;;;3.63;1.70;;;20.30;63.60;;;;;;4949967;28;88013;-67
2021/10/30 10:42:03;;;;;;;6.05;2.10;;;20.30;63.60;;;;;;4949759;28;87150;-68
2021/10/30 10:44:37;;;;;;;2.88;1.60;;;20.30;63.60;;;;;;4949547;28;88181;-65
2021/10/30 10:47:03;;;;;;;7.18;2.38;;;20.30;63.70;;;;;;4950354;28;88677;-67
2021/10/30 10:52:09;;;;;;;4.70;1.75;;;20.30;63.60;;;;;;4950863;28;87591;-69
2021/10/30 10:55:02;;;;;;;6.78;1.88;;;20.30;63.50;;;;;;4950381;28;87617;-70
2021/10/30 10:57:47;;;;;;;3.58;1.63;;;20.30;64.20;;;;;;4931012;28;90907;-66
2021/10/30 11:00:19;;;;;;;4.55;1.52;;;20.30;64.10;;;;;;4949250;28;88433;-76
2021/10/30 11:02:54;;;;;;;4.00;1.98;;;20.30;63.90;;;;;;4943305;28;87023;-75
2021/10/30 11:05:21;;;;;;;3.92;1.48;;;20.30;63.90;;;;;;4948737;28;87685;-73
2021/10/30 11:07:49;;;;;;;5.75;1.70;;;20.30;63.80;;;;;;4949032;28;87973;-69
2021/10/30 11:10:17;;;;;;;5.30;1.30;;;20.30;63.90;;;;;;4893387;28;88639;-71
2021/10/30 11:13:01;;;;;;;5.63;1.33;;;20.30;63.80;;;;;;4931533;28;88066;-67
2021/10/30 11:15:29;;;;;;;1.80;1.20;;;20.30;63.70;;;;;;4949373;28;87193;-74
2021/10/30 11:18:06;;;;;;;4.93;1.65;;;20.30;63.60;;;;;;4931097;28;89147;-68
2021/10/30 11:20:43;;;;;;;4.78;1.50;;;20.40;63.60;;;;;;4932842;28;90551;-75
2021/10/30 11:23:28;;;;;;;4.70;1.60;;;20.30;63.40;;;;;;4948549;28;87577;-72
2021/10/30 11:26:07;;;;;;;2.22;1.30;;;20.40;63.40;;;;;;4950243;28;87818;-74
2021/10/30 11:28:34;;;;;;;1.83;1.20;;;20.40;63.30;;;;;;4932352;28;90427;-73
2021/10/30 11:31:10;;;;;;;2.03;0.82;;;20.40;63.20;;;;;;4949586;28;87456;-66
2021/10/30 11:33:36;;;;;;;3.08;1.45;;;20.40;63.20;;;;;;4949953;28;87870;-71
2021/10/30 11:36:04;;;;;;;3.67;1.88;;;20.40;63.10;;;;;;4948015;28;89211;-72
2021/10/30 11:38:32;;;;;;;2.78;1.10;;;20.40;63.10;;;;;;4932056;28;89341;-73
2021/10/30 11:40:59;;;;;;;2.65;1.30;;;20.30;63.00;;;;;;4932051;28;90744;-70
2021/10/30 11:43:30;;;;;;;2.17;1.10;;;20.30;63.00;;;;;;4947431;28;87168;-72
2021/10/30 11:46:06;;;;;;;3.45;1.50;;;20.30;63.00;;;;;;4948482;28;87240;-75
2021/10/30 11:48:41;;;;;;;2.17;1.38;;;20.40;63.00;;;;;;4949405;28;88051;-74
2021/10/30 11:51:21;;;;;;;2.17;1.00;;;20.30;63.50;;;;;;4947160;28;90129;-67
2021/10/30 11:53:51;;;;;;;2.70;1.33;;;20.30;62.90;;;;;;4949098;28;87004;-74
2021/10/30 11:56:21;;;;;;;3.05;1.40;;;20.30;62.90;;;;;;4932219;28;90397;-67
2021/10/30 11:58:55;;;;;;;2.22;1.05;;;20.30;62.80;;;;;;4948025;28;90043;-65
2021/10/30 12:01:28;;;;;;;4.72;1.17;;;20.30;62.80;;;;;;4949327;28;88581;-68
2021/10/30 12:04:24;;;;;;;1.90;1.20;;;20.30;62.80;;;;;;4931011;28;87858;-70
2021/10/30 12:07:13;;;;;;;2.53;1.08;;;20.30;62.80;;;;;;4948227;28;90293;-74
2021/10/30 12:09:41;;;;;;;1.80;1.33;;;20.30;62.80;;;;;;4930704;28;89078;-75
2021/10/30 12:12:10;;;;;;;1.80;0.95;;;20.30;62.80;;;;;;4947610;28;90403;-72
2021/10/30 12:14:44;;;;;;;2.70;1.40;;;20.30;62.80;;;;;;4931313;28;87217;-71
2021/10/30 12:17:20;;;;;;;1.10;0.82;;;20.30;62.80;;;;;;4947549;28;88091;-73
2021/10/30 12:19:48;;;;;;;3.22;1.45;;;20.30;62.70;;;;;;4949368;28;87547;-71
2021/10/30 12:22:21;;;;;;;1.20;0.90;;;20.30;62.70;;;;;;4948573;28;87540;-75
2021/10/30 12:25:03;;;;;;;0.93;0.80;;;20.20;62.60;;;;;;4930766;28;88379;-75
2021/10/30 12:27:29;;;;;;;1.92;1.10;;;20.30;62.60;;;;;;4947832;28;88494;-72
2021/10/30 12:30:04;;;;;;;1.38;0.80;;;20.20;62.40;;;;;;4950368;28;92115;-74
2021/10/30 12:32:40;;;;;;;2.13;0.63;;;20.30;62.40;;;;;;4934311;28;91066;-74
2021/10/30 12:35:06;;;;;;;1.25;0.80;;;20.30;62.40;;;;;;4951598;28;88250;-66
2021/10/30 12:37:36;;;;;;;1.13;0.73;;;20.20;62.40;;;;;;4933162;28;88184;-65
2021/10/30 12:40:06;;;;;;;1.17;0.60;;;20.20;62.30;;;;;;4949865;28;91932;-68
2021/10/30 12:42:33;;;;;;;2.17;0.60;;;20.20;62.80;;;;;;4951742;28;88238;-65
2021/10/30 12:44:59;;;;;;;2.15;0.60;;;20.30;62.80;;;;;;4952132;28;87118;-66
2021/10/30 12:47:27;;;;;;;1.33;0.77;;;20.20;62.60;;;;;;4950294;28;89754;-65
2021/10/30 12:49:58;;;;;;;5.63;0.85;;;20.20;62.40;;;;;;4951021;28;88084;-65
2021/10/30 12:52:40;;;;;;;10.75;1.65;;;20.30;62.40;;;;;;4950869;28;89218;-63